Time;durP1;ratioP1;P1;durP2;ratioP2;P2;SDS_P1;SDS_P2;PMS_P1;PMS_P2;Temp;Humidity;BMP_temperature;BMP_pressure;BME280_temperature;BME280_humidity;BME280_pressure;Samples;Min_cycle;Max_cycle;Signal;HPM_P1;HPM_P2
2023/08/21 00:01:56;;;;;;;189.70;182.10;;;;;;;29.89;39.26;102185.22;5046250;28;20529;-71
2023/08/21 00:04:21;;;;;;;187.93;180.40;;;;;;;29.86;39.16;102185.91;5047339;28;20076;-70
2023/08/21 00:06:47;;;;;;;185.25;177.75;;;;;;;29.84;39.08;102179.03;5049156;28;20572;-71
2023/08/21 00:09:12;;;;;;;188.57;181.02;;;;;;;29.81;39.12;102174.97;5041108;28;20201;-71
2023/08/21 00:11:37;;;;;;;185.90;178.52;;;;;;;29.79;39.24;102170.88;5044661;28;20516;-71
2023/08/21 00:14:03;;;;;;;189.27;181.48;;;;;;;29.75;39.18;102179.91;5041324;28;20048;-71
2023/08/21 00:16:29;;;;;;;186.13;178.57;;;;;;;29.73;39.20;102179.44;5044187;28;20099;-71
2023/08/21 00:18:54;;;;;;;188.63;181.10;;;;;;;29.71;39.37;102184.53;5043661;28;20048;-71
2023/08/21 00:21:20;;;;;;;186.98;179.52;;;;;;;29.68;39.08;102184.38;5041954;28;20029;-71
2023/08/21 00:23:46;;;;;;;184.15;176.55;;;;;;;29.66;39.38;102181.13;5039949;28;20040;-71
2023/08/21 00:26:12;;;;;;;187.43;179.70;;;;;;;29.64;39.40;102184.22;5046632;28;20056;-71
2023/08/21 00:28:38;;;;;;;180.30;173.05;;;;;;;29.62;39.15;102192.09;5046022;28;20079;-71
2023/08/21 00:31:04;;;;;;;184.15;176.45;;;;;;;29.60;39.37;102199.16;5044425;28;20057;-70
2023/08/21 00:33:33;;;;;;;181.65;174.30;;;;;;;29.58;39.44;102196.69;5043663;28;20037;-71
2023/08/21 00:35:59;;;;;;;182.05;174.65;;;;;;;29.55;39.44;102186.25;5042749;28;20036;-71
2023/08/21 00:38:25;;;;;;;182.02;174.63;;;;;;;29.53;39.46;102182.97;5045239;28;20041;-72
2023/08/21 00:40:51;;;;;;;183.63;176.13;;;;;;;29.52;39.42;102192.50;5048173;28;20393;-75
2023/08/21 00:43:17;;;;;;;182.73;175.13;;;;;;;29.50;39.30;102184.47;5041039;28;20029;-72
2023/08/21 00:45:44;;;;;;;179.82;172.57;;;;;;;29.48;39.50;102185.97;5041822;28;20033;-73
2023/08/21 00:48:11;;;;;;;179.47;171.97;;;;;;;29.45;39.38;102179.09;5045000;28;20125;-72
2023/08/21 00:50:37;;;;;;;180.40;173.23;;;;;;;29.43;39.40;102177.81;5045503;28;20082;-73
2023/08/21 00:53:06;;;;;;;182.80;175.40;;;;;;;29.41;39.44;102172.59;5047838;28;20032;-73
2023/08/21 00:55:32;;;;;;;178.80;171.52;;;;;;;29.39;39.66;102168.50;5043755;28;20029;-72
2023/08/21 00:57:58;;;;;;;180.65;173.43;;;;;;;29.36;39.52;102164.44;5043468;28;20033;-75
2023/08/21 01:00:27;;;;;;;183.98;176.38;;;;;;;29.33;39.54;102157.59;5041355;28;20041;-72
2023/08/21 01:02:52;;;;;;;178.35;171.00;;;;;;;29.32;39.58;102160.69;5045004;28;20033;-72
2023/08/21 01:05:19;;;;;;;183.73;176.43;;;;;;;29.29;39.55;102156.63;5044143;28;20661;-73
2023/08/21 01:08:05;;;;;;;174.25;167.25;;;;;;;29.25;39.52;102160.41;5044586;28;20029;-72
2023/08/21 01:10:48;;;;;;;176.95;169.65;;;;;;;29.23;39.60;102154.34;5042051;28;20452;-73
2023/08/21 01:13:16;;;;;;;182.25;174.95;;;;;;;29.22;39.54;102156.31;5043846;28;20025;-72
2023/08/21 01:15:44;;;;;;;170.93;163.82;;;;;;;29.20;39.47;102157.81;5044999;28;20029;-72
2023/08/21 01:18:09;;;;;;;171.13;163.93;;;;;;;29.18;39.66;102149.81;5038103;28;20048;-72
2023/08/21 01:20:35;;;;;;;170.23;163.13;;;;;;;29.17;39.62;102162.06;5040609;28;20045;-73
2023/08/21 01:23:05;;;;;;;172.32;165.02;;;;;;;29.15;39.64;102161.59;5045019;28;20041;-73
2023/08/21 01:25:31;;;;;;;168.02;161.10;;;;;;;29.11;39.72;102155.09;5040949;28;20079;-73
2023/08/21 01:27:56;;;;;;;170.52;163.48;;;;;;;29.09;39.70;102158.19;5045261;28;20119;-72
2023/08/21 01:30:22;;;;;;;172.15;165.07;;;;;;;29.07;39.61;102162.47;5046014;28;20060;-74
2023/08/21 01:33:10;;;;;;;169.35;162.52;;;;;;;29.03;39.82;102169.81;5043391;28;20385;-72
2023/08/21 01:35:36;;;;;;;168.45;161.63;;;;;;;29.03;39.81;102175.38;5044557;28;20037;-73
2023/08/21 01:38:03;;;;;;;173.07;165.93;;;;;;;29.00;39.86;102179.63;5035359;28;20044;-73
2023/08/21 01:40:29;;;;;;;174.85;167.23;;;;;;;28.98;39.87;102172.78;5039920;28;20469;-74
2023/08/21 01:42:54;;;;;;;173.57;166.57;;;;;;;28.97;39.94;102187.84;5048847;28;20036;-72
2023/08/21 01:45:20;;;;;;;173.68;166.45;;;;;;;28.95;40.33;102184.56;5041616;28;20036;-72
2023/08/21 01:47:46;;;;;;;175.63;168.43;;;;;;;28.93;39.89;102176.56;5043164;28;20058;-72
2023/08/21 01:50:11;;;;;;;171.13;164.18;;;;;;;28.91;39.81;102178.88;5037742;28;20040;-73
2023/08/21 01:52:37;;;;;;;175.68;168.57;;;;;;;28.88;39.90;102176.75;5039284;28;20061;-72
2023/08/21 01:55:03;;;;;;;171.73;164.73;;;;;;;28.86;39.89;102181.84;5046807;28;20166;-72
2023/08/21 01:57:29;;;;;;;169.18;162.27;;;;;;;28.84;40.10;102184.13;5044106;28;20040;-72
2023/08/21 01:59:54;;;;;;;170.50;163.63;;;;;;;28.83;40.01;102176.94;5043729;28;20136;-74
2023/08/21 02:02:20;;;;;;;170.50;163.52;;;;;;;28.81;40.01;102182.03;5046666;28;20152;-74
2023/08/21 02:04:45;;;;;;;169.57;162.60;;;;;;;28.79;39.88;102187.91;5043761;28;20129;-75
2023/08/21 02:07:10;;;;;;;172.05;164.75;;;;;;;28.75;40.20;102173.03;5037672;28;20491;-72
2023/08/21 02:09:36;;;;;;;169.65;162.75;;;;;;;28.75;40.02;102177.78;5046600;28;20109;-72
2023/08/21 02:12:01;;;;;;;172.18;165.15;;;;;;;28.73;40.11;102185.63;5036287;28;20095;-73
2023/08/21 02:14:26;;;;;;;169.93;163.02;;;;;;;28.69;39.95;102177.94;5043198;28;20437;-73
2023/08/21 02:16:52;;;;;;;166.85;159.77;;;;;;;28.68;40.29;102176.31;5044900;28;20045;-72
2023/08/21 02:19:17;;;;;;;169.93;162.93;;;;;;;28.66;40.04;102180.59;5044061;28;20111;-73
2023/08/21 02:21:43;;;;;;;166.10;159.32;;;;;;;28.64;40.10;102180.09;5043031;28;20588;-72
2023/08/21 02:24:08;;;;;;;167.98;161.02;;;;;;;28.62;40.14;102180.41;5042794;28;20033;-74
2023/08/21 02:26:33;;;;;;;168.75;161.75;;;;;;;28.61;40.20;102180.78;5042480;28;20635;-74
2023/08/21 02:28:59;;;;;;;168.80;161.93;;;;;;;28.58;40.23;102187.00;5045364;28;20408;-71
2023/08/21 02:31:24;;;;;;;166.20;159.43;;;;;;;28.55;40.24;102184.84;5041668;28;20135;-74
2023/08/21 02:33:50;;;;;;;168.48;161.57;;;;;;;28.54;40.20;102188.78;5045587;28;20045;-72
2023/08/21 02:36:16;;;;;;;167.35;160.50;;;;;;;28.51;40.03;102190.28;5035811;28;20037;-73
2023/08/21 02:38:41;;;;;;;170.88;163.82;;;;;;;28.50;40.21;102182.25;5041345;28;20060;-72
2023/08/21 02:41:07;;;;;;;162.43;155.75;;;;;;;28.47;40.28;102178.97;5038584;28;20132;-72
2023/08/21 02:43:33;;;;;;;162.40;155.75;;;;;;;28.45;40.39;102172.13;5041054;28;20041;-74
2023/08/21 02:45:58;;;;;;;165.75;158.90;;;;;;;28.43;40.34;102186.34;5041027;28;20385;-73
2023/08/21 02:48:24;;;;;;;167.25;160.38;;;;;;;28.42;40.43;102190.25;5039243;28;20034;-72
2023/08/21 02:50:49;;;;;;;161.50;154.93;;;;;;;28.39;40.33;102182.56;5048150;28;20035;-72
2023/08/21 02:53:14;;;;;;;164.55;157.68;;;;;;;28.36;40.33;102180.47;5041492;28;20033;-71
2023/08/21 02:55:40;;;;;;;167.57;160.63;;;;;;;28.34;40.33;102171.63;5046418;28;20045;-72
2023/08/21 02:58:05;;;;;;;164.65;157.82;;;;;;;28.33;40.59;102178.34;5045349;28;20042;-71
2023/08/21 03:00:31;;;;;;;160.98;154.13;;;;;;;28.32;40.42;102181.44;5044292;28;20119;-74
2023/08/21 03:02:56;;;;;;;165.00;158.25;;;;;;;28.30;40.43;102176.22;5049199;28;20041;-72
2023/08/21 03:05:22;;;;;;;162.75;155.85;;;;;;;28.27;40.47;102177.69;5044619;28;20064;-74
2023/08/21 03:07:47;;;;;;;164.00;157.27;;;;;;;28.26;40.53;102178.03;5045436;28;20500;-73
2023/08/21 03:10:13;;;;;;;163.65;156.80;;;;;;;28.24;40.83;102177.53;5044778;28;20029;-74
2023/08/21 03:12:38;;;;;;;161.70;155.10;;;;;;;28.22;40.58;102172.31;5038656;28;20068;-73
2023/08/21 03:15:04;;;;;;;159.20;152.68;;;;;;;28.20;40.39;102171.81;5047866;28;20385;-73
2023/08/21 03:17:30;;;;;;;159.70;153.02;;;;;;;28.19;40.09;102177.69;5046510;28;20045;-74
2023/08/21 03:19:55;;;;;;;159.68;153.10;;;;;;;28.17;40.46;102178.03;5039559;28;20041;-73
2023/08/21 03:22:21;;;;;;;155.23;148.63;;;;;;;28.16;40.61;102178.34;5040525;28;20147;-72
2023/08/21 03:24:46;;;;;;;158.68;152.07;;;;;;;28.14;40.49;102178.69;5045158;28;20076;-73
2023/08/21 03:27:16;;;;;;;159.00;152.30;;;;;;;28.12;40.44;102178.19;5047505;28;20432;-72
2023/08/21 03:29:48;;;;;;;160.15;153.15;;;;;;;28.11;40.71;102178.53;5039583;28;20469;-73
2023/08/21 03:32:14;;;;;;;156.63;150.10;;;;;;;28.09;40.46;102176.06;5044396;28;20065;-73
2023/08/21 03:34:40;;;;;;;157.32;150.57;;;;;;;28.08;40.51;102185.56;5048549;28;20095;-74
2023/08/21 03:37:05;;;;;;;156.55;149.88;;;;;;;28.05;40.83;102177.88;5045669;28;20777;-72
2023/08/21 03:39:30;;;;;;;159.25;152.75;;;;;;;28.02;40.58;102179.34;5049686;28;20266;-72
2023/08/21 03:41:56;;;;;;;160.30;153.70;;;;;;;28.00;40.62;102178.84;5048134;28;20469;-71
2023/08/21 03:44:21;;;;;;;158.40;151.80;;;;;;;27.98;40.61;102167.25;5046244;28;20041;-72
2023/08/21 03:46:47;;;;;;;160.63;153.82;;;;;;;27.97;40.58;102171.19;5042830;28;20033;-72
2023/08/21 03:49:12;;;;;;;156.40;149.98;;;;;;;27.95;40.67;102173.47;5047608;28;20041;-73
2023/08/21 03:51:37;;;;;;;157.85;151.38;;;;;;;27.94;40.46;102177.38;5043574;28;20405;-72
2023/08/21 03:54:03;;;;;;;161.20;154.40;;;;;;;27.92;40.54;102174.13;5040807;28;20043;-72
2023/08/21 03:56:28;;;;;;;157.50;151.02;;;;;;;27.91;40.70;102180.00;5047753;28;20492;-72
2023/08/21 03:58:54;;;;;;;154.68;148.32;;;;;;;27.88;40.75;102173.13;5044924;28;20152;-72
2023/08/21 04:01:19;;;;;;;158.70;152.10;;;;;;;27.87;40.85;102179.84;5043045;28;20040;-72
2023/08/21 04:03:45;;;;;;;159.60;153.00;;;;;;;27.86;40.84;102178.19;5045062;28;20087;-71
2023/08/21 04:06:10;;;;;;;156.57;149.88;;;;;;;27.82;40.74;102166.94;5043422;28;20485;-71
2023/08/21 04:08:35;;;;;;;153.95;147.55;;;;;;;27.82;40.72;102171.66;5045400;28;20038;-74
2023/08/21 04:11:01;;;;;;;158.15;151.63;;;;;;;27.79;40.99;102173.09;5047992;28;20462;-73
2023/08/21 04:13:27;;;;;;;156.07;149.45;;;;;;;27.77;40.82;102178.16;5044495;28;20041;-72
2023/08/21 04:15:54;;;;;;;154.88;148.02;;;;;;;27.76;40.69;102181.25;5039457;28;20041;-72
2023/08/21 04:18:19;;;;;;;156.07;149.40;;;;;;;27.75;40.83;102185.19;5042792;28;20461;-72
2023/08/21 04:20:47;;;;;;;159.90;153.23;;;;;;;27.73;40.79;102191.06;5046528;28;20040;-73
2023/08/21 04:23:13;;;;;;;150.73;144.48;;;;;;;27.70;40.73;102190.91;5049107;28;20025;-72
2023/08/21 04:25:38;;;;;;;156.02;149.52;;;;;;;27.68;40.80;102191.22;5043447;28;20398;-72
2023/08/21 04:28:03;;;;;;;155.07;148.65;;;;;;;27.67;40.89;102189.59;5049134;28;20029;-72
2023/08/21 04:30:29;;;;;;;158.88;152.18;;;;;;;27.65;41.07;102197.41;5046536;28;20385;-72
2023/08/21 04:32:54;;;;;;;149.63;143.13;;;;;;;27.61;40.94;102197.22;5042187;28;20045;-72
2023/08/21 04:35:20;;;;;;;156.68;150.05;;;;;;;27.60;40.83;102201.16;5048573;28;20110;-71
2023/08/21 04:37:48;;;;;;;153.63;146.93;;;;;;;27.59;40.95;102190.38;5047609;28;20043;-74
2023/08/21 04:40:14;;;;;;;152.52;146.15;;;;;;;27.56;40.82;102194.63;5042511;28;20040;-72
2023/08/21 04:42:39;;;;;;;150.90;144.60;;;;;;;27.55;40.99;102192.19;5043553;28;20033;-71
2023/08/21 04:45:05;;;;;;;156.18;149.75;;;;;;;27.52;40.94;102196.41;5046496;28;20545;-72
2023/08/21 04:47:31;;;;;;;151.52;144.93;;;;;;;27.50;40.90;102201.47;5046394;28;20469;-71
2023/08/21 04:49:57;;;;;;;157.48;150.77;;;;;;;27.49;41.12;102202.59;5047580;28;20068;-73
2023/08/21 04:52:23;;;;;;;155.35;148.85;;;;;;;27.47;41.10;102195.72;5028706;28;20163;-72
2023/08/21 04:54:50;;;;;;;148.80;142.55;;;;;;;27.46;41.03;102199.66;5042606;28;20037;-73
2023/08/21 04:57:17;;;;;;;153.88;147.23;;;;;;;27.44;40.87;102213.84;5039685;28;20072;-73
2023/08/21 04:59:42;;;;;;;152.40;146.10;;;;;;;27.43;41.03;102215.00;5042996;28;20116;-72
2023/08/21 05:02:07;;;;;;;151.30;144.80;;;;;;;27.40;41.07;102210.09;5044720;28;20125;-72
2023/08/21 05:04:35;;;;;;;154.68;148.20;;;;;;;27.38;41.12;102212.38;5040965;28;20072;-72
2023/08/21 05:07:01;;;;;;;151.00;144.70;;;;;;;27.36;41.03;102209.91;5046245;28;20523;-73
2023/08/21 05:09:26;;;;;;;149.23;142.70;;;;;;;27.34;41.06;102217.75;5043029;28;20061;-73
2023/08/21 05:11:52;;;;;;;148.82;142.57;;;;;;;27.33;40.86;102218.06;5042249;28;20080;-73
2023/08/21 05:14:19;;;;;;;152.73;146.20;;;;;;;27.32;40.97;102216.44;5039063;28;20041;-73
2023/08/21 05:16:45;;;;;;;148.60;142.30;;;;;;;27.30;41.03;102218.72;5044121;28;20060;-72
2023/08/21 05:19:10;;;;;;;152.93;146.52;;;;;;;27.29;40.92;102226.22;5042649;28;20045;-73
2023/08/21 05:21:35;;;;;;;151.18;144.70;;;;;;;27.27;41.10;102219.38;5043294;28;20036;-73
2023/08/21 05:24:01;;;;;;;149.63;143.13;;;;;;;27.25;41.36;102224.41;5043563;28;20025;-72
2023/08/21 05:26:26;;;;;;;143.85;137.65;;;;;;;27.23;41.15;102221.94;5040928;28;20076;-72
2023/08/21 05:28:51;;;;;;;149.63;143.23;;;;;;;27.22;41.12;102225.06;5045259;28;20045;-70
2023/08/21 05:31:17;;;;;;;151.20;144.75;;;;;;;27.20;40.97;102225.38;5044414;28;20055;-73
2023/08/21 05:33:42;;;;;;;156.00;149.32;;;;;;;27.18;41.17;102224.84;5036019;28;20364;-72
2023/08/21 05:36:08;;;;;;;147.77;141.60;;;;;;;27.17;41.00;102228.75;5047757;28;20040;-72
2023/08/21 05:38:33;;;;;;;150.95;144.48;;;;;;;27.14;41.42;102235.75;5037540;28;20501;-70
2023/08/21 05:40:59;;;;;;;149.48;143.13;;;;;;;27.13;41.40;102228.56;5032704;28;20100;-72
2023/08/21 05:43:24;;;;;;;147.90;141.60;;;;;;;27.12;41.22;102226.13;5033076;28;20052;-72
2023/08/21 05:45:50;;;;;;;151.02;144.60;;;;;;;27.12;40.99;102228.91;5043258;28;20029;-72
2023/08/21 05:48:16;;;;;;;145.98;139.85;;;;;;;27.10;41.25;102233.94;5045956;28;20030;-73
2023/08/21 05:50:42;;;;;;;149.38;143.07;;;;;;;27.08;41.12;102237.00;5032180;28;20116;-72
2023/08/21 05:53:07;;;;;;;147.23;141.05;;;;;;;27.08;41.24;102237.00;5041613;28;20128;-73
2023/08/21 05:55:33;;;;;;;142.02;136.00;;;;;;;27.06;41.17;102236.50;5045305;28;20104;-72
2023/08/21 05:57:58;;;;;;;143.60;137.55;;;;;;;27.06;41.02;102230.97;5050421;28;20121;-72
2023/08/21 06:00:24;;;;;;;147.88;141.57;;;;;;;27.05;41.35;102231.31;5039071;28;20481;-71
2023/08/21 06:02:49;;;;;;;147.20;140.82;;;;;;;27.03;41.29;102228.84;5036311;28;20049;-73
2023/08/21 06:05:15;;;;;;;148.95;142.60;;;;;;;27.04;41.48;102232.41;5051967;28;20369;-73
2023/08/21 06:07:40;;;;;;;150.43;143.88;;;;;;;27.03;41.09;102236.34;5047689;28;20067;-73
2023/08/21 06:10:12;;;;;;;145.25;139.02;;;;;;;27.03;41.04;102239.94;5033049;28;22177;-71
2023/08/21 06:12:38;;;;;;;148.95;142.57;;;;;;;27.03;41.29;102241.88;5033186;28;20044;-71
2023/08/21 06:15:04;;;;;;;146.50;140.10;;;;;;;27.02;41.32;102237.50;5045641;28;20052;-72
2023/08/21 06:17:29;;;;;;;144.18;138.05;;;;;;;27.01;41.33;102250.50;5033887;28;20144;-71
2023/08/21 06:19:55;;;;;;;147.13;140.82;;;;;;;27.01;41.48;102244.16;5044326;28;20473;-72
2023/08/21 06:22:21;;;;;;;148.88;142.60;;;;;;;27.01;41.06;102247.75;5035987;28;20461;-72
2023/08/21 06:24:46;;;;;;;152.38;145.45;;;;;;;27.01;41.09;102255.25;5025843;28;20449;-71
2023/08/21 06:27:11;;;;;;;145.50;138.95;;;;;;;27.01;41.39;102244.16;5043005;28;20529;-73
2023/08/21 06:29:37;;;;;;;146.52;140.13;;;;;;;26.99;41.46;102250.03;5044033;28;20618;-72
2023/08/21 06:32:03;;;;;;;143.25;136.95;;;;;;;27.00;41.36;102248.91;5044525;28;20100;-72
2023/08/21 06:34:28;;;;;;;141.38;135.18;;;;;;;27.00;41.33;102248.91;5045024;28;20474;-73
2023/08/21 06:36:54;;;;;;;140.23;134.18;;;;;;;27.00;41.31;102242.53;5039431;28;20939;-71
2023/08/21 06:39:19;;;;;;;139.05;132.85;;;;;;;26.99;41.11;102238.94;5043905;28;20386;-72
2023/08/21 06:41:44;;;;;;;139.20;133.25;;;;;;;26.98;41.35;102240.88;5044167;28;20052;-73
2023/08/21 06:44:10;;;;;;;138.38;132.40;;;;;;;26.99;41.19;102244.50;5047167;28;20113;-71
2023/08/21 06:46:36;;;;;;;141.43;135.18;;;;;;;26.98;41.59;102240.88;5043195;28;21593;-73
2023/08/21 06:49:02;;;;;;;139.75;133.75;;;;;;;26.98;40.96;102248.38;5039549;28;21284;-72
2023/08/21 06:51:27;;;;;;;140.23;134.07;;;;;;;26.98;41.23;102249.19;5046250;28;20093;-70
2023/08/21 06:53:53;;;;;;;137.68;131.57;;;;;;;26.99;41.21;102250.03;5045474;28;20065;-71
2023/08/21 06:56:18;;;;;;;143.10;136.90;;;;;;;26.98;41.22;102243.66;5045295;28;20033;-71
2023/08/21 06:58:43;;;;;;;139.93;133.80;;;;;;;27.00;41.28;102240.56;5046161;28;20049;-70
2023/08/21 07:01:09;;;;;;;143.38;137.23;;;;;;;27.01;41.04;102249.72;5041677;28;20067;-71
2023/08/21 07:03:34;;;;;;;139.73;133.35;;;;;;;27.01;41.41;102253.28;5045623;28;20397;-71
2023/08/21 07:06:00;;;;;;;140.95;135.00;;;;;;;27.02;41.22;102257.72;5045934;28;20061;-74
2023/08/21 07:08:26;;;;;;;138.15;131.85;;;;;;;27.02;41.17;102254.13;5045863;28;20389;-70
2023/08/21 07:10:53;;;;;;;142.55;136.45;;;;;;;27.02;41.21;102254.13;5039984;28;20125;-71
2023/08/21 07:13:19;;;;;;;135.05;129.32;;;;;;;27.03;41.22;102253.78;5045750;28;20029;-70
2023/08/21 07:15:44;;;;;;;138.45;132.15;;;;;;;27.02;41.27;102243.84;5045939;28;20087;-70
2023/08/21 07:18:10;;;;;;;139.93;133.88;;;;;;;27.04;41.36;102249.06;5047475;28;20057;-71
2023/08/21 07:20:35;;;;;;;139.93;133.85;;;;;;;27.05;41.46;102251.53;5045708;28;20397;-71
2023/08/21 07:23:01;;;;;;;137.65;131.73;;;;;;;27.05;41.34;102253.50;5045402;28;20045;-70
2023/08/21 07:25:28;;;;;;;138.05;131.77;;;;;;;27.05;41.31;102259.84;5044757;28;20040;-70
2023/08/21 07:27:53;;;;;;;135.90;129.95;;;;;;;27.05;41.19;102259.84;5046331;28;20098;-70
2023/08/21 07:30:19;;;;;;;138.38;132.07;;;;;;;27.06;41.56;102263.44;5045256;28;20032;-71
2023/08/21 07:32:45;;;;;;;138.88;132.98;;;;;;;27.07;41.51;102263.13;5041592;28;20138;-72
2023/08/21 07:35:11;;;;;;;137.98;131.98;;;;;;;27.08;41.41;102261.97;5047465;28;20405;-71
2023/08/21 07:37:36;;;;;;;137.93;131.95;;;;;;;27.10;41.43;102267.22;5049635;28;20055;-71
2023/08/21 07:40:02;;;;;;;140.07;134.02;;;;;;;27.11;41.31;102260.53;5051220;28;20526;-71
2023/08/21 07:42:28;;;;;;;142.70;136.50;;;;;;;27.13;41.31;102258.25;5048464;28;20042;-72
2023/08/21 07:44:53;;;;;;;139.85;133.93;;;;;;;27.12;41.49;102263.00;5050063;28;20048;-72
2023/08/21 07:47:18;;;;;;;139.63;133.55;;;;;;;27.14;41.66;102254.34;5046529;28;20037;-71
2023/08/21 07:49:44;;;;;;;143.77;137.68;;;;;;;27.14;41.31;102260.72;5049238;28;20036;-71
2023/08/21 07:52:09;;;;;;;141.23;135.23;;;;;;;27.15;41.39;102259.56;5049473;28;20037;-72
2023/08/21 07:54:35;;;;;;;137.38;131.48;;;;;;;27.17;41.40;102264.81;5047914;28;20033;-71
2023/08/21 07:57:00;;;;;;;143.38;136.82;;;;;;;27.18;41.59;102267.28;5042172;28;20128;-72
2023/08/21 07:59:26;;;;;;;137.85;132.07;;;;;;;27.20;41.75;102272.53;5050742;28;20040;-71
2023/08/21 08:01:52;;;;;;;140.50;134.40;;;;;;;27.22;41.58;102269.44;5041645;28;20462;-71
2023/08/21 08:04:17;;;;;;;143.80;137.45;;;;;;;27.24;41.67;102267.13;5047462;28;20068;-72
2023/08/21 08:06:43;;;;;;;138.18;132.18;;;;;;;27.27;41.54;102275.66;5050598;28;20033;-71
2023/08/21 08:09:08;;;;;;;143.88;137.68;;;;;;;27.31;41.71;102267.50;5041743;28;20485;-72
2023/08/21 08:11:34;;;;;;;139.65;133.73;;;;;;;27.33;41.70;102273.56;5044698;28;20419;-72
2023/08/21 08:13:59;;;;;;;139.45;133.50;;;;;;;27.36;41.62;102268.16;5045629;28;20636;-72
2023/08/21 08:16:25;;;;;;;140.40;134.38;;;;;;;27.39;41.79;102267.56;5048127;28;20041;-72
2023/08/21 08:18:50;;;;;;;144.75;138.43;;;;;;;27.43;41.75;102276.03;5045314;28;20407;-71
2023/08/21 08:21:16;;;;;;;141.50;135.57;;;;;;;27.46;42.04;102272.63;5046468;28;20045;-71
2023/08/21 08:23:41;;;;;;;143.48;137.38;;;;;;;27.50;41.90;102272.81;5045152;28;20033;-72
2023/08/21 08:26:08;;;;;;;142.88;136.75;;;;;;;27.54;42.32;102277.41;5047870;28;20541;-72
2023/08/21 08:28:34;;;;;;;145.75;139.55;;;;;;;27.56;41.84;102265.97;5044835;28;20436;-70
2023/08/21 08:31:00;;;;;;;144.90;138.80;;;;;;;27.60;41.93;102270.56;5050424;28;20460;-71
2023/08/21 08:33:25;;;;;;;147.10;140.95;;;;;;;27.65;42.17;102264.03;5043247;28;20638;-71
2023/08/21 08:35:51;;;;;;;147.23;141.02;;;;;;;27.67;42.17;102264.53;5045526;28;20090;-72
2023/08/21 08:38:17;;;;;;;145.07;138.98;;;;;;;27.70;42.13;102274.19;5047720;28;20099;-71
2023/08/21 08:40:46;;;;;;;148.52;142.18;;;;;;;27.74;42.13;102275.16;5049796;28;20037;-71
2023/08/21 08:43:13;;;;;;;142.13;136.13;;;;;;;27.78;41.97;102281.72;5047387;28;20036;-69
2023/08/21 08:45:40;;;;;;;145.85;139.55;;;;;;;27.81;42.35;102286.59;5046187;28;20044;-72
2023/08/21 08:48:06;;;;;;;142.80;136.70;;;;;;;27.85;42.51;102278.50;5043350;28;20489;-72
2023/08/21 08:50:33;;;;;;;146.05;139.98;;;;;;;27.89;42.56;102287.81;5047269;28;20028;-71
2023/08/21 08:52:59;;;;;;;150.25;143.98;;;;;;;27.92;42.39;102287.16;5044634;28;20290;-71
2023/08/21 08:55:25;;;;;;;150.88;144.57;;;;;;;27.95;42.54;102292.06;5046282;28;20465;-71
2023/08/21 08:57:52;;;;;;;152.95;146.55;;;;;;;27.98;42.50;102275.56;5043133;28;20037;-72
2023/08/21 09:00:18;;;;;;;147.43;141.13;;;;;;;28.01;42.61;102277.69;5042546;28;20028;-71
2023/08/21 09:02:43;;;;;;;150.43;144.02;;;;;;;28.06;42.37;102273.94;5045167;28;20064;-73
2023/08/21 09:05:10;;;;;;;145.00;138.90;;;;;;;28.07;42.53;102272.78;5050609;28;20033;-73
2023/08/21 09:07:36;;;;;;;152.23;145.80;;;;;;;28.11;42.38;102265.44;5038212;28;20091;-74
2023/08/21 09:10:02;;;;;;;150.70;144.38;;;;;;;28.15;42.19;102262.81;5045489;28;20659;-71
2023/08/21 09:12:31;;;;;;;150.27;144.05;;;;;;;28.20;42.42;102268.25;5045646;28;20757;-71
2023/08/21 09:14:58;;;;;;;153.15;146.55;;;;;;;28.24;42.36;102266.44;5047719;28;20021;-73
2023/08/21 09:17:25;;;;;;;153.80;147.43;;;;;;;28.29;42.43;102271.03;5044193;28;20041;-72
2023/08/21 09:19:51;;;;;;;152.05;145.65;;;;;;;28.32;42.40;102273.13;5047493;28;20033;-71
2023/08/21 09:22:18;;;;;;;152.00;145.48;;;;;;;28.36;42.28;102263.00;5048100;28;20033;-71
2023/08/21 09:25:19;;;;;;;152.95;146.63;;;;;;;28.37;42.82;102268.22;5045694;28;20029;-73
2023/08/21 09:27:45;;;;;;;151.57;145.23;;;;;;;28.43;42.53;102272.50;5022738;28;20037;-73
2023/08/21 09:30:14;;;;;;;157.68;150.77;;;;;;;28.47;42.27;102265.16;5045110;28;20056;-71
2023/08/21 09:33:04;;;;;;;153.77;147.30;;;;;;;28.49;42.62;102262.06;5045452;28;20037;-71
2023/08/21 09:35:33;;;;;;;155.38;148.85;;;;;;;28.56;42.46;102267.94;5044356;28;20048;-71
2023/08/21 09:37:59;;;;;;;154.85;148.27;;;;;;;28.60;42.64;102270.84;5044245;28;20060;-72
2023/08/21 09:40:24;;;;;;;160.93;154.23;;;;;;;28.62;42.46;102261.03;5048162;28;20060;-71
2023/08/21 09:42:54;;;;;;;155.75;149.25;;;;;;;28.67;42.60;102268.41;5047074;28;20112;-72
2023/08/21 09:45:24;;;;;;;157.25;150.75;;;;;;;28.70;42.67;102262.19;5047281;28;21017;-72
2023/08/21 09:47:52;;;;;;;162.90;156.20;;;;;;;28.76;42.58;102260.88;5046769;28;20092;-71
2023/08/21 09:50:18;;;;;;;165.02;158.32;;;;;;;28.79;42.76;102263.00;5039998;28;20049;-72
2023/08/21 09:52:45;;;;;;;162.60;155.70;;;;;;;28.83;43.05;102263.97;5047792;28;20048;-70
2023/08/21 09:55:13;;;;;;;159.95;153.23;;;;;;;28.87;42.98;102259.34;5046709;28;20067;-70
2023/08/21 09:57:40;;;;;;;158.35;151.80;;;;;;;28.91;42.72;102265.09;5043797;28;20025;-72
2023/08/21 10:00:15;;;;;;;166.70;159.80;;;;;;;28.95;42.79;102262.44;5047249;28;20465;-71
2023/08/21 10:02:49;;;;;;;165.35;158.65;;;;;;;28.98;42.57;102265.41;5044472;28;20516;-72
2023/08/21 10:05:16;;;;;;;160.52;153.63;;;;;;;29.02;42.31;102258.00;5044941;28;20392;-71
2023/08/21 10:07:43;;;;;;;168.73;161.82;;;;;;;29.05;42.62;102249.03;5046680;28;20503;-71
2023/08/21 10:10:11;;;;;;;167.38;160.43;;;;;;;29.10;42.77;102246.06;5045827;28;20052;-70
2023/08/21 10:12:36;;;;;;;162.40;155.75;;;;;;;29.14;42.67;102246.22;5043853;28;20060;-71
2023/08/21 10:15:02;;;;;;;163.98;157.15;;;;;;;29.18;42.63;102255.56;5044069;28;20600;-72
2023/08/21 10:17:27;;;;;;;165.25;158.50;;;;;;;29.21;42.62;102245.72;5048065;28;20049;-72
2023/08/21 10:19:53;;;;;;;166.18;159.35;;;;;;;29.24;42.84;102254.22;5039245;28;20498;-70
2023/08/21 10:22:43;;;;;;;164.50;157.60;;;;;;;29.26;42.80;102248.31;5042591;28;20497;-72
2023/08/21 10:25:15;;;;;;;165.15;158.35;;;;;;;29.31;42.60;102254.50;5037348;28;20044;-73
2023/08/21 10:27:42;;;;;;;166.75;159.80;;;;;;;29.36;43.11;102250.72;5042998;28;20058;-72
2023/08/21 10:30:22;;;;;;;170.48;163.38;;;;;;;29.39;42.89;102244.47;5045894;28;20067;-72
2023/08/21 10:32:49;;;;;;;166.98;160.10;;;;;;;29.44;42.81;102235.94;5044467;28;20025;-73
2023/08/21 10:35:18;;;;;;;167.48;160.35;;;;;;;29.48;42.71;102247.22;5045403;28;20566;-71
2023/08/21 10:38:10;;;;;;;170.60;163.50;;;;;;;29.50;42.98;102247.69;5042698;28;20037;-72
2023/08/21 10:40:37;;;;;;;171.13;164.20;;;;;;;29.55;42.62;102242.75;5034845;28;20041;-72
2023/08/21 10:43:02;;;;;;;173.60;166.52;;;;;;;29.59;42.73;102254.03;5042503;28;20120;-71
2023/08/21 10:45:29;;;;;;;174.07;167.02;;;;;;;29.62;42.96;102247.78;5040550;28;20124;-72
2023/08/21 10:47:57;;;;;;;172.27;165.25;;;;;;;29.67;42.73;102250.41;5044624;28;20473;-71
2023/08/21 10:50:22;;;;;;;;;;;;;;;29.65;43.01;102258.28;5046920;28;20461;-72
2023/08/21 10:52:51;;;;;;;169.45;162.35;;;;;;;29.72;42.56;102247.44;5040956;28;19928;-71